LFTW/FNI METAR and TAF weather

Enter ICAO airport designator
Station Type Date Time Source
LFTW METAR 2020/04/08 20:30 UTC NOAA

LFTW 082030Z AUTO 00000KT CAVOK 11/M01 Q1024


Station Type Date Time Source
LFTW Decoded METAR 2020/04/08 20:30 UTC NOAA

Nimes / Garons, France (LFTW) 43-45N 004-25E 96M
Apr 08, 2020 - 04:30 PM EDT / 2020.04.08 2030 UTC
Wind: Calm:0
Visibility: greater than 7 mile(s):0
Temperature: 51 F (11 C)
Dew Point: 30 F (-1 C)
Relative Humidity: 43%
Pressure (altimeter): 30.24 in. Hg (1024 hPa)
ob: LFTW 082030Z AUTO 00000KT CAVOK 11/M01 Q1024
cycle: 20

Station Type Date Time Source
LFTW TAF 2020/04/07 15:21 UTC NOAA

TAF LFTW 071400Z 0715/0815 17010KT CAVOK
BECMG 0716/0718 03008KT
BECMG 0807/0809 16010KT

Example: see airport list